CSCL Europe — P3VZ9 — position and weather

sailwx.info

Track history (hours):
 
Tides and Currents Weather Stations Pressure Air Temp Water Temp Dewpoint Dewpoint Depression Visibility Wind Speed Wind Dir Waves Ship Positions

CSCL Europe

Last reported at 2018-Apr-18 06:53 UTC. Time now 2018-Apr-19 17:28 UTC.
Position N 22°19' E 114°07'.

Length 334 m; draft 11.5 m.

Type: Cargo ship. MMSI: 212175000.

Date/timePositionNaut miles runAvg speedWind from/ knotsBaromVisibWave heightAir tempDewpointWater temp
2018-Apr-18 06:53N 22°19' E 114°07'  
2018-Apr-13 04:32N 01°15' E 104°05'215.1
2018-Apr-13 04:25N 01°14' E 104°03'614.2
2018-Apr-13 04:00N 01°13' E 103°57'612.5
2018-Apr-13 03:29N 01°11' E 103°51'4 8.2
2018-Apr-13 03:00N 01°13' E 103°47'2 4.1
2018-Apr-13 02:27N 01°16' E 103°47'0 0.0
2018-Apr-13 01:57N 01°16' E 103°47'0 0.0
2018-Apr-13 01:30N 01°16' E 103°47'0 0.0
2018-Apr-13 01:00N 01°16' E 103°47'0 0.0
2018-Apr-13 00:30N 01°16' E 103°47'0 0.0
2018-Apr-13 00:00N 01°16' E 103°47'0 0.0
2018-Apr-12 23:30N 01°16' E 103°47'0 0.0
2018-Apr-12 23:00N 01°16' E 103°47'0 0.0
2018-Apr-12 22:30N 01°16' E 103°47'0 0.0
2018-Apr-12 22:00N 01°16' E 103°47'0 0.0
2018-Apr-12 21:30N 01°16' E 103°47'0 0.0
2018-Apr-12 21:00N 01°16' E 103°47'0 0.0
2018-Apr-12 20:30N 01°16' E 103°47'0 0.0
2018-Apr-12 20:00N 01°16' E 103°47'0 0.0
2018-Apr-12 19:30N 01°16' E 103°47'0 0.0
2018-Apr-12 19:00N 01°16' E 103°47'0 0.0
2018-Apr-12 18:30N 01°16' E 103°47'0 0.0
2018-Apr-12 18:00N 01°16' E 103°47'0 0.0
2018-Apr-12 17:30N 01°16' E 103°47'0 0.0
2018-Apr-12 17:00N 01°16' E 103°47'0 0.0
2018-Apr-12 16:30N 01°16' E 103°47'0 0.0
2018-Apr-12 16:00N 01°16' E 103°47'0 0.0
2018-Apr-12 15:30N 01°16' E 103°47'0 0.0
2018-Apr-12 15:00N 01°16' E 103°47'0 0.0
2018-Apr-12 14:30N 01°16' E 103°47'0 0.0
2018-Apr-12 14:00N 01°16' E 103°47'0 0.0
2018-Apr-12 13:30N 01°16' E 103°47'0 0.0
2018-Apr-12 13:00N 01°16' E 103°47'0 0.0
2018-Apr-12 12:30N 01°16' E 103°47'0 0.0
2018-Apr-12 12:00N 01°16' E 103°47'0 0.0
2018-Apr-12 11:30N 01°16' E 103°47'0 0.0
2018-Apr-12 11:00N 01°16' E 103°47'0 0.0
2018-Apr-12 10:30N 01°16' E 103°47'0 0.0
2018-Apr-12 09:59N 01°16' E 103°47'0 0.0
2018-Apr-12 09:30N 01°16' E 103°47'0 0.0
2018-Apr-12 09:00N 01°16' E 103°47'0 0.0
2018-Apr-12 08:30N 01°16' E 103°47'1 1.2
2018-Apr-12 08:00N 01°15' E 103°47'2 3.1
2018-Apr-12 07:30N 01°15' E 103°45'4 6.9
2018-Apr-12 06:59N 01°14' E 103°42'5 9.8
2018-Apr-12 06:29N 01°12' E 103°37'2 4.1
2018-Apr-12 06:00N 01°12' E 103°35'3 5.1
2018-Apr-12 05:31N 01°11' E 103°33'2 4.8
2018-Apr-12 05:01N 01°11' E 103°31'4 7.4
2018-Apr-12 04:30N 01°10' E 103°27'5 8.5
2018-Apr-12 03:57N 01°12' E 103°23'4 8.6
2018-Apr-12 03:30N 01°15' E 103°20'4 8.7
2018-Apr-12 02:59N 01°18' E 103°17'6 8.4
2018-Apr-12 02:15N 01°22' E 103°12'  
Track history (hours):
 
Tides and Currents Weather Stations Pressure Air Temp Water Temp Dewpoint Dewpoint Depression Visibility Wind Speed Wind Dir Waves Ship Positions

CSCL Europe

Last reported at 2018-Apr-18 06:53 UTC. Time now 2018-Apr-19 17:28 UTC.
Position N 22°19' E 114°07'.

Length 334 m; draft 11.5 m.

Type: Cargo ship. MMSI: 212175000.

Date/timePositionNaut miles runAvg speedWind from/ knotsBaromVisibWave heightAir tempDewpointWater temp
2018-Apr-18 06:53N 22°19' E 114°07'  
2018-Apr-13 04:32N 01°15' E 104°05'215.1
2018-Apr-13 04:25N 01°14' E 104°03'614.2
2018-Apr-13 04:00N 01°13' E 103°57'612.5
2018-Apr-13 03:29N 01°11' E 103°51'4 8.2
2018-Apr-13 03:00N 01°13' E 103°47'2 4.1
2018-Apr-13 02:27N 01°16' E 103°47'0 0.0
2018-Apr-13 01:57N 01°16' E 103°47'0 0.0
2018-Apr-13 01:30N 01°16' E 103°47'0 0.0
2018-Apr-13 01:00N 01°16' E 103°47'0 0.0
2018-Apr-13 00:30N 01°16' E 103°47'0 0.0
2018-Apr-13 00:00N 01°16' E 103°47'0 0.0
2018-Apr-12 23:30N 01°16' E 103°47'0 0.0
2018-Apr-12 23:00N 01°16' E 103°47'0 0.0
2018-Apr-12 22:30N 01°16' E 103°47'0 0.0
2018-Apr-12 22:00N 01°16' E 103°47'0 0.0
2018-Apr-12 21:30N 01°16' E 103°47'0 0.0
2018-Apr-12 21:00N 01°16' E 103°47'0 0.0
2018-Apr-12 20:30N 01°16' E 103°47'0 0.0
2018-Apr-12 20:00N 01°16' E 103°47'0 0.0
2018-Apr-12 19:30N 01°16' E 103°47'0 0.0
2018-Apr-12 19:00N 01°16' E 103°47'0 0.0
2018-Apr-12 18:30N 01°16' E 103°47'0 0.0
2018-Apr-12 18:00N 01°16' E 103°47'0 0.0
2018-Apr-12 17:30N 01°16' E 103°47'0 0.0
2018-Apr-12 17:00N 01°16' E 103°47'0 0.0
2018-Apr-12 16:30N 01°16' E 103°47'0 0.0
2018-Apr-12 16:00N 01°16' E 103°47'0 0.0
2018-Apr-12 15:30N 01°16' E 103°47'0 0.0
2018-Apr-12 15:00N 01°16' E 103°47'0 0.0
2018-Apr-12 14:30N 01°16' E 103°47'0 0.0
2018-Apr-12 14:00N 01°16' E 103°47'0 0.0
2018-Apr-12 13:30N 01°16' E 103°47'0 0.0
2018-Apr-12 13:00N 01°16' E 103°47'0 0.0
2018-Apr-12 12:30N 01°16' E 103°47'0 0.0
2018-Apr-12 12:00N 01°16' E 103°47'0 0.0
2018-Apr-12 11:30N 01°16' E 103°47'0 0.0
2018-Apr-12 11:00N 01°16' E 103°47'0 0.0
2018-Apr-12 10:30N 01°16' E 103°47'0 0.0
2018-Apr-12 09:59N 01°16' E 103°47'0 0.0
2018-Apr-12 09:30N 01°16' E 103°47'0 0.0
2018-Apr-12 09:00N 01°16' E 103°47'0 0.0
2018-Apr-12 08:30N 01°16' E 103°47'1 1.2
2018-Apr-12 08:00N 01°15' E 103°47'2 3.1
2018-Apr-12 07:30N 01°15' E 103°45'4 6.9
2018-Apr-12 06:59N 01°14' E 103°42'5 9.8
2018-Apr-12 06:29N 01°12' E 103°37'2 4.1
2018-Apr-12 06:00N 01°12' E 103°35'3 5.1
2018-Apr-12 05:31N 01°11' E 103°33'2 4.8
2018-Apr-12 05:01N 01°11' E 103°31'4 7.4
2018-Apr-12 04:30N 01°10' E 103°27'5 8.5
2018-Apr-12 03:57N 01°12' E 103°23'4 8.6
2018-Apr-12 03:30N 01°15' E 103°20'4 8.7
2018-Apr-12 02:59N 01°18' E 103°17'6 8.4
2018-Apr-12 02:15N 01°22' E 103°12'  

Dump ship's entire track history